Time;durP1;ratioP1;P1;durP2;ratioP2;P2;SDS_P1;SDS_P2;PMS_P1;PMS_P2;Temp;Humidity;BMP_temperature;BMP_pressure;BME280_temperature;BME280_humidity;BME280_pressure;Samples;Min_cycle;Max_cycle;Signal;HPM_P1;HPM_P2
2022/05/22 00:00:16;;;;;;;6.32;3.00;;;10.70;99.90;;;;;;5031130;28;20097;-48
2022/05/22 00:02:42;;;;;;;4.95;3.42;;;10.70;99.90;;;;;;5030758;28;20026;-50
2022/05/22 00:05:12;;;;;;;8.55;3.60;;;10.70;99.90;;;;;;5030992;28;20029;-48
2022/05/22 00:07:38;;;;;;;12.68;3.33;;;10.70;99.90;;;;;;5013124;28;20400;-48
2022/05/22 00:10:04;;;;;;;11.52;3.92;;;10.70;99.90;;;;;;5030822;28;20025;-51
2022/05/22 00:12:30;;;;;;;7.90;3.15;;;10.60;99.90;;;;;;5012745;28;20022;-52
2022/05/22 00:14:56;;;;;;;6.93;2.45;;;10.60;99.90;;;;;;5030688;28;20029;-49
2022/05/22 00:17:21;;;;;;;5.47;2.95;;;10.70;99.90;;;;;;5013125;28;20029;-49
2022/05/22 00:19:47;;;;;;;7.93;3.10;;;10.60;99.90;;;;;;5030229;28;20051;-48
2022/05/22 00:22:13;;;;;;;7.57;3.70;;;10.60;99.90;;;;;;5012906;28;20095;-51
2022/05/22 00:24:39;;;;;;;10.00;3.60;;;10.60;99.90;;;;;;5012573;28;20551;-47
2022/05/22 00:27:05;;;;;;;6.63;2.85;;;10.60;99.90;;;;;;5029289;28;20060;-51
2022/05/22 00:29:31;;;;;;;9.68;3.90;;;10.60;99.90;;;;;;5013169;28;20435;-51
2022/05/22 00:31:57;;;;;;;8.85;3.17;;;10.60;99.90;;;;;;5029246;28;20087;-49
2022/05/22 00:34:24;;;;;;;10.68;3.53;;;10.60;99.90;;;;;;5030279;28;20076;-53
2022/05/22 00:36:49;;;;;;;7.63;2.90;;;10.60;99.90;;;;;;5012609;28;20030;-51
2022/05/22 00:39:15;;;;;;;9.85;3.95;;;10.50;99.90;;;;;;5035400;28;20028;-47
2022/05/22 00:41:45;;;;;;;8.60;2.90;;;10.50;99.90;;;;;;5049821;28;20551;-52
2022/05/22 00:44:11;;;;;;;10.40;4.35;;;10.50;99.90;;;;;;5031675;28;20463;-50
2022/05/22 00:46:37;;;;;;;10.73;3.80;;;10.50;99.90;;;;;;5050047;28;20036;-47
2022/05/22 00:49:10;;;;;;;9.38;3.38;;;10.50;99.90;;;;;;5032121;28;20028;-48
2022/05/22 00:51:58;;;;;;;9.15;3.22;;;10.40;99.90;;;;;;5049500;28;20043;-47
2022/05/22 00:54:32;;;;;;;8.25;3.47;;;10.40;99.90;;;;;;5031987;28;20491;-49
2022/05/22 00:57:06;;;;;;;11.23;4.90;;;10.40;99.90;;;;;;5032231;28;20036;-48
2022/05/22 00:59:37;;;;;;;8.68;4.00;;;10.40;99.90;;;;;;5047767;28;20398;-47
2022/05/22 01:02:04;;;;;;;4.60;3.55;;;10.40;99.90;;;;;;5029181;28;20056;-49
2022/05/22 01:04:33;;;;;;;9.43;4.07;;;10.40;99.90;;;;;;5030668;28;20013;-49
2022/05/22 01:07:01;;;;;;;7.63;3.63;;;10.40;99.90;;;;;;5032245;28;20113;-48
2022/05/22 01:09:26;;;;;;;9.25;3.88;;;10.40;99.90;;;;;;5032116;28;20480;-48
2022/05/22 01:11:58;;;;;;;6.25;3.67;;;10.30;99.90;;;;;;5031611;28;20033;-47
2022/05/22 01:14:25;;;;;;;7.68;4.07;;;10.30;99.90;;;;;;5049710;28;20024;-49
2022/05/22 01:16:51;;;;;;;11.35;4.15;;;10.30;99.90;;;;;;5031993;28;20483;-49
2022/05/22 01:19:21;;;;;;;8.18;3.88;;;10.30;99.90;;;;;;5049190;28;20035;-51
2022/05/22 01:22:01;;;;;;;6.60;3.67;;;10.30;99.90;;;;;;5049793;28;20359;-49
2022/05/22 01:24:27;;;;;;;9.13;3.17;;;10.30;99.90;;;;;;5049377;28;20025;-48
2022/05/22 01:26:55;;;;;;;7.38;3.33;;;10.30;99.90;;;;;;5049551;28;20479;-48
2022/05/22 01:29:20;;;;;;;10.05;4.45;;;10.20;99.90;;;;;;5049602;28;20025;-48
2022/05/22 01:31:46;;;;;;;7.55;3.40;;;10.20;99.90;;;;;;5049490;28;20036;-49
2022/05/22 01:34:12;;;;;;;10.68;3.83;;;10.20;99.90;;;;;;5049733;28;20546;-48
2022/05/22 01:36:38;;;;;;;9.38;4.47;;;10.30;99.90;;;;;;5049655;28;20025;-47
2022/05/22 01:39:04;;;;;;;5.50;3.58;;;10.20;99.90;;;;;;5031800;28;20021;-49
2022/05/22 01:41:30;;;;;;;6.35;3.30;;;10.20;99.90;;;;;;5031329;28;20049;-47
2022/05/22 01:43:55;;;;;;;9.00;4.07;;;10.30;99.90;;;;;;5033946;28;20032;-48
2022/05/22 01:46:21;;;;;;;9.02;4.13;;;10.30;99.90;;;;;;5053852;28;20021;-48
2022/05/22 01:48:46;;;;;;;8.10;4.68;;;10.30;99.90;;;;;;5035669;28;20025;-47
2022/05/22 01:51:12;;;;;;;10.27;5.20;;;10.30;99.90;;;;;;5035152;28;20021;-50
2022/05/22 01:53:38;;;;;;;12.60;4.65;;;10.30;99.90;;;;;;5053511;28;20028;-49
2022/05/22 01:56:04;;;;;;;5.90;4.32;;;10.30;99.90;;;;;;5050617;28;20028;-47
2022/05/22 01:58:29;;;;;;;9.98;4.28;;;10.30;99.90;;;;;;5042218;28;20652;-47
2022/05/22 02:00:55;;;;;;;9.77;4.85;;;10.30;99.90;;;;;;5016412;28;20083;-49
2022/05/22 02:03:20;;;;;;;5.60;3.70;;;10.30;99.90;;;;;;5052986;28;20029;-49
2022/05/22 02:05:46;;;;;;;8.55;4.75;;;10.30;99.90;;;;;;5053210;28;20025;-47
2022/05/22 02:08:24;;;;;;;14.68;5.22;;;10.30;99.90;;;;;;5053061;28;20033;-46
2022/05/22 02:10:55;;;;;;;10.27;4.30;;;10.40;99.90;;;;;;5020154;28;20036;-48
2022/05/22 02:13:23;;;;;;;9.43;4.60;;;10.30;99.90;;;;;;5052647;28;20021;-49
2022/05/22 02:15:50;;;;;;;13.00;4.32;;;10.40;99.90;;;;;;5035171;28;20033;-48
2022/05/22 02:18:15;;;;;;;6.30;4.22;;;10.40;99.90;;;;;;5052788;28;20032;-46
2022/05/22 02:20:41;;;;;;;10.20;4.38;;;10.40;99.90;;;;;;5034697;28;20028;-48
2022/05/22 02:23:07;;;;;;;7.03;3.72;;;10.40;99.90;;;;;;5035057;28;20027;-47
2022/05/22 02:28:04;;;;;;;7.10;3.50;;;10.40;99.90;;;;;;5051341;28;20457;-46
2022/05/22 02:30:35;;;;;;;10.20;4.43;;;10.30;99.90;;;;;;5052547;28;20079;-44
2022/05/22 02:33:00;;;;;;;8.63;4.18;;;10.30;99.90;;;;;;5044960;28;20475;-45
2022/05/22 02:35:26;;;;;;;9.60;4.22;;;10.30;99.90;;;;;;5045912;28;20032;-43
2022/05/22 02:37:53;;;;;;;8.65;4.15;;;10.30;99.90;;;;;;5052268;28;20028;-44
2022/05/22 02:40:22;;;;;;;16.30;5.07;;;10.30;99.90;;;;;;5052332;28;20044;-43
2022/05/22 02:42:50;;;;;;;9.02;4.35;;;10.30;99.90;;;;;;5051619;28;20502;-45
2022/05/22 02:45:18;;;;;;;9.88;4.95;;;10.30;99.90;;;;;;5052091;28;20070;-43
2022/05/22 02:47:44;;;;;;;7.43;3.85;;;10.30;99.90;;;;;;5052329;28;20754;-44
2022/05/22 02:50:12;;;;;;;9.60;4.72;;;10.20;99.90;;;;;;5052183;28;20093;-43
2022/05/22 02:52:37;;;;;;;12.43;4.43;;;10.20;99.90;;;;;;5051831;28;20025;-44
2022/05/22 02:55:04;;;;;;;6.97;3.53;;;10.20;99.90;;;;;;5051144;28;20028;-46
2022/05/22 02:57:32;;;;;;;15.45;4.90;;;10.10;99.90;;;;;;5052139;28;20097;-45
2022/05/22 02:59:58;;;;;;;9.77;3.80;;;10.10;99.90;;;;;;5051982;28;20399;-43
2022/05/22 03:02:24;;;;;;;9.63;4.78;;;10.10;99.90;;;;;;5052025;28;20029;-46
2022/05/22 03:04:49;;;;;;;4.32;3.35;;;10.10;99.90;;;;;;5051880;28;20072;-44
2022/05/22 03:07:17;;;;;;;7.90;3.50;;;10.10;99.90;;;;;;5051872;28;20044;-43
2022/05/22 03:09:44;;;;;;;6.70;3.50;;;10.10;99.90;;;;;;5051781;28;20060;-43
2022/05/22 03:12:14;;;;;;;7.60;4.28;;;10.10;99.90;;;;;;5051526;28;20644;-44
2022/05/22 03:14:51;;;;;;;11.95;4.28;;;10.10;99.90;;;;;;5051460;28;20032;-43
2022/05/22 03:17:17;;;;;;;6.93;3.58;;;10.10;99.90;;;;;;5051781;28;20025;-44
2022/05/22 03:19:42;;;;;;;7.97;3.63;;;10.10;99.90;;;;;;5050695;28;20056;-43
2022/05/22 03:22:09;;;;;;;9.57;3.83;;;10.10;99.90;;;;;;5051485;28;20393;-45
2022/05/22 03:24:35;;;;;;;8.15;3.90;;;10.10;99.90;;;;;;5051415;28;20104;-42
2022/05/22 03:27:01;;;;;;;6.38;4.13;;;10.10;99.90;;;;;;5051333;28;20128;-43
2022/05/22 03:29:27;;;;;;;6.13;4.10;;;10.10;99.90;;;;;;5051316;28;20017;-44
2022/05/22 03:31:53;;;;;;;7.38;3.40;;;10.10;99.90;;;;;;5050962;28;20033;-43
2022/05/22 03:34:18;;;;;;;9.48;4.25;;;10.10;99.90;;;;;;5051413;28;20047;-43
2022/05/22 03:36:44;;;;;;;15.38;5.03;;;10.10;99.90;;;;;;5033418;28;20079;-45
2022/05/22 03:39:10;;;;;;;10.43;3.90;;;10.10;99.90;;;;;;5051281;28;20029;-46
2022/05/22 03:41:36;;;;;;;7.85;3.92;;;10.10;99.90;;;;;;5051134;28;20041;-43
2022/05/22 03:44:02;;;;;;;8.73;3.95;;;10.10;99.90;;;;;;5050926;28;20025;-44
2022/05/22 03:46:28;;;;;;;9.13;3.50;;;10.10;99.90;;;;;;5050996;28;20021;-46
2022/05/22 03:48:53;;;;;;;13.85;4.80;;;10.10;99.90;;;;;;5051288;28;20029;-47
2022/05/22 03:51:19;;;;;;;8.68;3.40;;;10.10;99.90;;;;;;5050953;28;20036;-44
2022/05/22 03:53:45;;;;;;;11.52;3.65;;;10.10;99.90;;;;;;5051211;28;20059;-47
2022/05/22 03:56:12;;;;;;;7.15;3.78;;;10.10;99.90;;;;;;5050975;28;20025;-45
2022/05/22 03:58:38;;;;;;;9.45;3.70;;;10.10;99.90;;;;;;5050799;28;20025;-45
2022/05/22 04:01:04;;;;;;;12.32;3.92;;;10.10;99.90;;;;;;5050684;28;20067;-43
2022/05/22 04:03:29;;;;;;;8.77;4.07;;;10.20;99.90;;;;;;5050472;28;20021;-46
2022/05/22 04:05:55;;;;;;;7.30;3.13;;;10.20;99.90;;;;;;5050324;28;20562;-46
2022/05/22 04:08:20;;;;;;;8.00;3.70;;;10.20;99.90;;;;;;5050763;28;20033;-49
2022/05/22 04:10:47;;;;;;;14.65;4.22;;;10.30;99.90;;;;;;5050651;28;20593;-46
2022/05/22 04:13:13;;;;;;;11.43;4.35;;;10.30;99.90;;;;;;5050334;28;20024;-44
2022/05/22 04:15:38;;;;;;;7.82;3.88;;;10.30;99.90;;;;;;5050353;28;20450;-46
2022/05/22 04:18:04;;;;;;;9.15;3.95;;;10.20;99.90;;;;;;5050544;28;20551;-45
2022/05/22 04:20:30;;;;;;;10.35;3.97;;;10.30;99.90;;;;;;5050217;28;20017;-45
2022/05/22 04:25:54;;;;;;;15.75;4.53;;;10.40;99.90;;;;;;5050417;28;20082;-44
2022/05/22 04:28:21;;;;;;;9.52;4.07;;;10.40;99.90;;;;;;5050077;28;20031;-46
2022/05/22 04:30:46;;;;;;;9.70;3.47;;;10.40;99.90;;;;;;5050020;28;20033;-46
2022/05/22 04:33:12;;;;;;;9.65;4.28;;;10.50;99.90;;;;;;5049961;28;20029;-45
2022/05/22 04:35:37;;;;;;;8.77;3.85;;;10.50;99.90;;;;;;5050027;28;20029;-44
2022/05/22 04:38:03;;;;;;;16.80;4.18;;;10.50;99.90;;;;;;5049761;28;20028;-43
2022/05/22 04:40:29;;;;;;;14.27;5.30;;;10.50;99.90;;;;;;5050082;28;20029;-46
2022/05/22 04:42:54;;;;;;;8.82;4.10;;;10.50;99.90;;;;;;5049749;28;20430;-44
2022/05/22 04:45:20;;;;;;;10.30;3.28;;;10.50;99.90;;;;;;5049731;28;20013;-45
2022/05/22 04:47:46;;;;;;;12.45;4.55;;;10.60;99.90;;;;;;5050036;28;20028;-45
2022/05/22 04:50:13;;;;;;;8.23;3.08;;;10.70;99.90;;;;;;5049838;28;20419;-45
2022/05/22 04:52:39;;;;;;;8.85;4.93;;;10.70;99.90;;;;;;5048943;28;20501;-44
2022/05/22 04:55:06;;;;;;;12.07;4.05;;;10.80;99.90;;;;;;5049873;28;20025;-48
2022/05/22 04:57:31;;;;;;;8.77;3.63;;;10.90;99.90;;;;;;5050260;28;20395;-46
2022/05/22 04:59:57;;;;;;;7.75;3.72;;;11.00;99.90;;;;;;5049926;28;20029;-44
2022/05/22 05:02:24;;;;;;;7.93;3.78;;;11.00;99.90;;;;;;5049895;28;20021;-47
2022/05/22 05:04:53;;;;;;;9.20;5.07;;;11.10;99.90;;;;;;5049773;28;20406;-43
2022/05/22 05:07:19;;;;;;;14.50;4.57;;;11.10;99.90;;;;;;5049862;28;20021;-44
2022/05/22 05:09:45;;;;;;;11.15;3.85;;;11.00;99.90;;;;;;5049810;28;20035;-44
2022/05/22 05:12:11;;;;;;;9.23;4.30;;;11.10;99.90;;;;;;5049446;28;20043;-44
2022/05/22 05:14:37;;;;;;;14.10;4.55;;;11.10;99.90;;;;;;5049613;28;20394;-46
2022/05/22 05:17:08;;;;;;;9.60;3.95;;;11.10;99.90;;;;;;5050011;28;20029;-47
2022/05/22 05:19:33;;;;;;;10.80;3.20;;;11.20;99.90;;;;;;5053141;28;20021;-47
2022/05/22 05:21:59;;;;;;;11.05;4.18;;;11.30;99.90;;;;;;5053612;28;20399;-47
2022/05/22 05:24:24;;;;;;;8.30;3.45;;;11.30;99.90;;;;;;5053746;28;20025;-49
2022/05/22 05:26:51;;;;;;;8.73;4.03;;;11.40;99.90;;;;;;5053427;28;20040;-42
2022/05/22 05:29:17;;;;;;;8.98;4.47;;;11.40;99.90;;;;;;5053689;28;20017;-48
2022/05/22 05:31:43;;;;;;;8.55;3.05;;;11.50;99.90;;;;;;5053387;28;20100;-48
2022/05/22 05:34:09;;;;;;;9.90;3.88;;;11.50;99.90;;;;;;5053970;28;20108;-47
2022/05/22 05:36:34;;;;;;;10.07;3.50;;;11.50;99.90;;;;;;5035918;28;20561;-47
2022/05/22 05:39:00;;;;;;;11.52;4.28;;;11.60;99.90;;;;;;5053527;28;20036;-45
2022/05/22 05:41:25;;;;;;;11.18;4.72;;;11.60;99.90;;;;;;5053236;28;20017;-48
2022/05/22 05:43:51;;;;;;;9.43;3.38;;;11.70;99.90;;;;;;5052449;28;20028;-46
2022/05/22 05:46:17;;;;;;;10.32;3.15;;;11.70;99.90;;;;;;5053438;28;20025;-43
2022/05/22 05:48:42;;;;;;;13.25;3.80;;;11.80;99.90;;;;;;5053565;28;20036;-48
2022/05/22 05:51:08;;;;;;;9.70;4.10;;;12.00;99.90;;;;;;5035309;28;20032;-48
2022/05/22 05:53:34;;;;;;;7.63;3.53;;;12.00;99.90;;;;;;5035285;28;20028;-45
2022/05/22 05:56:04;;;;;;;12.63;3.45;;;12.20;99.90;;;;;;5053152;28;20021;-47
2022/05/22 05:58:29;;;;;;;6.82;3.55;;;12.30;99.90;;;;;;5053089;28;20032;-44
2022/05/22 06:00:55;;;;;;;9.68;3.33;;;12.30;99.90;;;;;;5053149;28;20506;-45
2022/05/22 06:03:20;;;;;;;7.80;3.17;;;12.40;99.90;;;;;;5052844;28;20114;-47
2022/05/22 06:05:48;;;;;;;7.85;2.50;;;12.40;99.90;;;;;;5052859;28;20652;-45
2022/05/22 06:08:14;;;;;;;9.32;3.65;;;12.50;99.90;;;;;;5052893;28;20025;-45
2022/05/22 06:10:39;;;;;;;6.90;2.70;;;12.60;99.90;;;;;;5053036;28;20398;-43
2022/05/22 06:13:08;;;;;;;14.25;3.38;;;12.70;99.90;;;;;;5052923;28;20032;-47
2022/05/22 06:15:33;;;;;;;5.95;2.83;;;12.70;99.90;;;;;;5052981;28;20060;-48
2022/05/22 06:17:59;;;;;;;7.25;2.40;;;12.70;99.90;;;;;;5052768;28;20060;-44
2022/05/22 06:20:25;;;;;;;4.90;3.22;;;12.90;99.90;;;;;;5034739;28;20167;-45
2022/05/22 06:22:50;;;;;;;7.13;2.95;;;12.90;99.90;;;;;;5052347;28;20336;-48
2022/05/22 06:25:17;;;;;;;4.97;2.38;;;13.00;99.90;;;;;;5052558;28;20020;-44
2022/05/22 06:27:43;;;;;;;6.95;3.20;;;13.00;99.90;;;;;;5052609;28;20107;-44
2022/05/22 06:30:12;;;;;;;9.02;3.38;;;13.10;99.90;;;;;;5052979;28;20032;-48
2022/05/22 06:32:40;;;;;;;7.65;2.92;;;13.20;99.90;;;;;;5052258;28;20028;-47
2022/05/22 06:35:07;;;;;;;6.68;3.30;;;13.30;99.90;;;;;;5052377;28;20057;-48
2022/05/22 06:37:33;;;;;;;4.88;2.97;;;13.30;99.90;;;;;;5052118;28;20028;-45
2022/05/22 06:39:58;;;;;;;8.88;3.53;;;13.30;99.90;;;;;;5052060;28;20024;-44
2022/05/22 06:42:29;;;;;;;9.23;3.53;;;13.30;99.90;;;;;;5051937;28;20102;-45
2022/05/22 06:44:59;;;;;;;12.57;3.22;;;13.40;99.90;;;;;;5051934;28;20476;-43
2022/05/22 06:47:27;;;;;;;9.43;2.85;;;13.40;99.90;;;;;;5052472;28;20108;-49
2022/05/22 06:49:53;;;;;;;3.97;2.80;;;13.30;99.90;;;;;;5052303;28;20495;-44
2022/05/22 06:52:19;;;;;;;9.20;2.90;;;13.30;99.90;;;;;;5034159;28;20036;-44
2022/05/22 06:54:45;;;;;;;6.00;2.17;;;13.40;99.90;;;;;;5034329;28;20183;-47
2022/05/22 06:57:14;;;;;;;5.88;2.38;;;13.50;99.90;;;;;;5052117;28;20100;-44
2022/05/22 06:59:39;;;;;;;6.13;2.60;;;13.60;99.90;;;;;;5051997;28;20029;-48
2022/05/22 07:02:06;;;;;;;7.18;2.72;;;13.70;99.90;;;;;;5051668;28;20521;-47
2022/05/22 07:04:31;;;;;;;8.55;3.00;;;13.80;99.90;;;;;;5034050;28;20025;-47
2022/05/22 07:06:57;;;;;;;11.27;3.38;;;14.00;99.90;;;;;;5052022;28;20544;-47
2022/05/22 07:09:23;;;;;;;8.48;2.45;;;14.00;99.90;;;;;;5052008;28;20067;-48
2022/05/22 07:11:49;;;;;;;8.95;2.30;;;14.10;99.90;;;;;;5033531;28;20032;-47
2022/05/22 07:14:15;;;;;;;6.78;2.60;;;14.30;99.90;;;;;;5051933;28;20033;-45
2022/05/22 07:16:41;;;;;;;12.98;2.88;;;14.50;99.90;;;;;;5051742;28;20021;-47
2022/05/22 07:19:09;;;;;;;7.78;2.78;;;14.40;99.90;;;;;;5051439;28;20104;-46
2022/05/22 07:21:34;;;;;;;5.53;2.38;;;14.20;99.90;;;;;;5051669;28;20060;-44
2022/05/22 07:24:00;;;;;;;6.55;2.22;;;14.00;99.90;;;;;;5051549;28;20057;-45
2022/05/22 07:26:29;;;;;;;5.68;2.50;;;13.80;99.90;;;;;;5051465;28;20040;-46
2022/05/22 07:28:58;;;;;;;10.20;2.67;;;13.70;99.90;;;;;;5051807;28;20478;-44
2022/05/22 07:31:25;;;;;;;6.80;3.33;;;13.60;99.90;;;;;;5051667;28;20029;-44
2022/05/22 07:33:51;;;;;;;6.03;1.90;;;13.60;99.90;;;;;;5051247;28;20021;-46
2022/05/22 07:36:17;;;;;;;7.20;2.28;;;13.60;99.90;;;;;;5051267;28;20501;-43
2022/05/22 07:38:44;;;;;;;6.65;2.55;;;13.90;99.90;;;;;;5051213;28;20060;-45
2022/05/22 07:41:10;;;;;;;7.30;2.47;;;14.50;99.90;;;;;;5050677;28;20115;-45
2022/05/22 07:43:35;;;;;;;4.30;1.75;;;15.20;99.90;;;;;;5050942;28;20040;-48
2022/05/22 07:46:01;;;;;;;5.60;2.30;;;15.40;99.90;;;;;;5051099;28;20029;-44
2022/05/22 07:48:27;;;;;;;4.85;1.38;;;15.50;99.90;;;;;;5050780;28;20032;-44
2022/05/22 07:50:57;;;;;;;6.60;2.30;;;15.90;99.90;;;;;;5033158;28;20033;-43
2022/05/22 07:53:24;;;;;;;10.95;2.92;;;16.50;99.90;;;;;;5050600;28;20029;-45
2022/05/22 07:55:49;;;;;;;10.00;2.10;;;16.90;99.90;;;;;;5050930;28;20048;-44
2022/05/22 07:58:16;;;;;;;5.18;2.33;;;17.00;99.90;;;;;;5050878;28;20075;-45
2022/05/22 08:00:41;;;;;;;4.63;1.38;;;17.00;99.90;;;;;;5050747;28;20131;-45
2022/05/22 08:03:12;;;;;;;3.67;1.63;;;16.60;99.90;;;;;;5050892;28;20580;-43
2022/05/22 08:05:38;;;;;;;8.13;1.63;;;16.10;99.90;;;;;;5051008;28;20175;-44
2022/05/22 08:08:05;;;;;;;5.60;2.15;;;15.70;99.90;;;;;;5032791;28;20104;-44
2022/05/22 08:10:30;;;;;;;4.03;1.60;;;15.40;99.90;;;;;;5050977;28;20036;-44
2022/05/22 08:12:56;;;;;;;10.25;2.22;;;15.10;99.90;;;;;;5050292;28;20029;-43
2022/05/22 08:15:23;;;;;;;6.18;1.63;;;15.00;99.90;;;;;;5050634;28;20025;-45
2022/05/22 08:17:49;;;;;;;7.55;2.40;;;15.00;99.90;;;;;;5050632;28;20479;-45
2022/05/22 08:20:18;;;;;;;4.43;1.65;;;14.90;99.90;;;;;;5050060;28;20029;-48
2022/05/22 08:22:44;;;;;;;5.45;2.63;;;14.90;99.90;;;;;;5050287;28;20029;-48
2022/05/22 08:25:12;;;;;;;6.13;2.53;;;15.00;99.90;;;;;;5050567;28;20108;-47
2022/05/22 08:27:38;;;;;;;8.40;2.38;;;15.10;99.90;;;;;;5050120;28;20041;-44
2022/05/22 08:30:04;;;;;;;8.05;2.17;;;15.60;99.90;;;;;;5050132;28;20103;-46
2022/05/22 08:32:30;;;;;;;5.88;2.30;;;16.30;99.90;;;;;;5050109;28;20024;-45
2022/05/22 08:34:55;;;;;;;5.60;1.90;;;16.70;99.90;;;;;;5040895;28;20025;-45
2022/05/22 08:37:22;;;;;;;5.32;2.03;;;16.90;99.90;;;;;;5050196;28;20033;-48
2022/05/22 08:39:48;;;;;;;5.68;2.05;;;16.70;99.90;;;;;;5049991;28;20033;-45
2022/05/22 08:42:20;;;;;;;4.47;1.75;;;17.00;99.90;;;;;;5049957;28;20096;-45
2022/05/22 08:44:50;;;;;;;4.50;1.88;;;17.40;99.90;;;;;;5049933;28;20057;-45
2022/05/22 08:47:37;;;;;;;7.20;1.83;;;17.90;99.90;;;;;;5050504;28;20025;-46
2022/05/22 08:50:07;;;;;;;7.13;1.95;;;18.30;99.90;;;;;;5049989;28;20395;-46
2022/05/22 08:52:47;;;;;;;4.47;1.60;;;17.90;99.90;;;;;;5048918;28;20025;-45
2022/05/22 08:55:19;;;;;;;5.65;2.17;;;17.60;99.90;;;;;;5049922;28;20064;-45
2022/05/22 09:00:37;;;;;;;4.22;1.52;;;17.20;99.90;;;;;;5049784;28;20107;-50
2022/05/22 09:03:14;;;;;;;6.28;1.73;;;17.60;99.90;;;;;;5049696;28;20028;-51
2022/05/22 09:05:41;;;;;;;5.20;1.35;;;18.00;99.90;;;;;;5049809;28;20086;-47
2022/05/22 09:08:20;;;;;;;3.17;1.58;;;18.10;99.90;;;;;;5049517;28;20056;-43
2022/05/22 09:11:05;;;;;;;4.07;1.10;;;18.30;99.90;;;;;;5049833;28;20104;-49
2022/05/22 09:13:42;;;;;;;2.50;1.10;;;18.90;99.90;;;;;;5049749;28;20024;-48
2022/05/22 09:16:15;;;;;;;5.38;1.50;;;18.90;99.90;;;;;;5049981;28;20379;-48
2022/05/22 09:18:48;;;;;;;3.25;1.02;;;18.20;99.90;;;;;;5049981;28;20032;-46
2022/05/22 09:21:35;;;;;;;2.58;1.30;;;17.80;99.90;;;;;;5049608;28;20025;-47
2022/05/22 09:24:04;;;;;;;2.20;1.30;;;17.90;99.90;;;;;;5050118;28;20566;-49
2022/05/22 09:26:44;;;;;;;2.50;1.13;;;18.20;99.90;;;;;;5049639;28;20056;-48
2022/05/22 09:29:13;;;;;;;3.65;1.20;;;18.30;99.90;;;;;;5049952;28;20025;-48
2022/05/22 09:31:52;;;;;;;4.07;1.95;;;18.10;99.90;;;;;;5049352;28;20028;-48
2022/05/22 09:34:38;;;;;;;3.22;1.30;;;17.80;99.90;;;;;;5031682;28;20041;-47
2022/05/22 09:37:23;;;;;;;3.10;1.10;;;17.50;99.90;;;;;;5049564;28;20083;-44
2022/05/22 09:39:51;;;;;;;4.50;1.10;;;17.80;99.90;;;;;;5049582;28;20029;-46
2022/05/22 09:42:51;;;;;;;4.70;1.10;;;18.00;99.90;;;;;;5049143;28;20096;-49
2022/05/22 09:45:37;;;;;;;4.47;1.10;;;18.20;99.90;;;;;;5049032;28;20021;-47
2022/05/22 09:48:32;;;;;;;1.60;0.98;;;18.50;99.90;;;;;;5049527;28;20546;-45
2022/05/22 09:51:14;;;;;;;3.88;1.15;;;18.50;99.90;;;;;;5048725;28;20037;-50
2022/05/22 09:54:02;;;;;;;4.20;1.20;;;18.60;99.40;;;;;;5049441;28;20031;-46
2022/05/22 09:56:36;;;;;;;1.70;0.80;;;18.70;99.90;;;;;;5049354;28;20032;-47
2022/05/22 09:59:21;;;;;;;4.13;0.90;;;18.20;99.90;;;;;;5049431;28;20132;-50
2022/05/22 10:01:52;;;;;;;2.70;0.88;;;17.80;99.40;;;;;;5049341;28;20025;-43
2022/05/22 10:04:54;;;;;;;3.05;0.90;;;17.30;99.90;;;;;;5033117;28;20024;-46
2022/05/22 10:07:33;;;;;;;3.63;1.10;;;17.20;99.90;;;;;;5053005;28;20021;-46
2022/05/22 10:10:17;;;;;;;6.68;2.25;;;17.50;99.90;;;;;;5052985;28;20024;-49
2022/05/22 10:13:11;;;;;;;3.20;1.30;;;17.60;99.90;;;;;;5034796;28;20052;-45
2022/05/22 10:16:11;;;;;;;3.53;0.80;;;17.50;99.90;;;;;;5052649;28;20065;-49
2022/05/22 10:19:00;;;;;;;3.50;1.35;;;17.50;99.90;;;;;;5052659;28;20074;-47
2022/05/22 10:22:00;;;;;;;2.90;1.50;;;17.40;99.90;;;;;;5052251;28;20554;-46
2022/05/22 10:24:32;;;;;;;3.13;1.10;;;17.20;99.90;;;;;;5035220;28;20086;-49
2022/05/22 10:27:09;;;;;;;3.42;1.33;;;17.20;99.90;;;;;;5052762;28;20132;-45
2022/05/22 10:29:58;;;;;;;2.85;1.20;;;17.40;99.90;;;;;;5052652;28;20052;-48
2022/05/22 10:32:33;;;;;;;3.42;1.35;;;17.40;99.90;;;;;;5052431;28;20487;-43
2022/05/22 10:35:18;;;;;;;5.70;1.95;;;17.20;99.90;;;;;;5052445;28;20029;-48
2022/05/22 10:38:04;;;;;;;4.10;1.30;;;17.10;99.90;;;;;;5052681;28;20056;-46
2022/05/22 10:42:44;;;;;;;3.03;0.80;;;17.30;99.90;;;;;;5052870;28;20511;-45
2022/05/22 10:43:15;;;;;;;3.38;1.20;;;17.60;99.90;;;;;;5052141;28;20561;-49
2022/05/22 10:45:41;;;;;;;2.63;0.90;;;17.60;99.90;;;;;;5052136;28;20021;-47
2022/05/22 10:48:21;;;;;;;2.90;0.70;;;17.50;99.90;;;;;;5052387;28;20367;-51
2022/05/22 10:51:03;;;;;;;2.60;0.80;;;17.30;99.90;;;;;;5052317;28;20017;-46
2022/05/22 10:53:39;;;;;;;2.05;1.02;;;17.60;99.40;;;;;;5051977;28;20100;-45
2022/05/22 10:56:26;;;;;;;1.27;0.95;;;17.90;99.90;;;;;;5034186;28;20053;-45
2022/05/22 10:58:58;;;;;;;2.35;0.75;;;17.70;99.90;;;;;;5052296;28;20082;-44
2022/05/22 11:01:27;;;;;;;3.92;1.00;;;17.60;99.70;;;;;;5034414;28;20025;-46
2022/05/22 11:04:08;;;;;;;1.85;0.88;;;17.60;99.10;;;;;;5051967;28;20031;-45
2022/05/22 11:06:52;;;;;;;3.13;0.95;;;17.70;99.90;;;;;;5051801;28;20028;-45
2022/05/22 11:09:25;;;;;;;2.88;0.95;;;17.60;99.90;;;;;;5051997;28;20048;-47
2022/05/22 11:11:50;;;;;;;6.03;1.00;;;17.50;99.90;;;;;;5051876;28;20037;-52
2022/05/22 11:14:21;;;;;;;6.65;1.50;;;17.50;99.90;;;;;;5052122;28;20676;-47
2022/05/22 11:16:47;;;;;;;3.22;0.80;;;17.60;99.90;;;;;;5050977;28;20233;-49
2022/05/22 11:19:21;;;;;;;1.92;0.63;;;17.90;99.90;;;;;;5052098;28;20543;-46
2022/05/22 11:22:27;;;;;;;4.05;0.90;;;18.00;99.90;;;;;;5051449;28;20029;-49
2022/05/22 11:25:33;;;;;;;2.25;0.85;;;17.80;99.60;;;;;;5051437;28;20025;-49
2022/05/22 11:28:06;;;;;;;2.85;0.95;;;17.80;99.90;;;;;;4970245;28;20026;-50
2022/05/22 11:30:51;;;;;;;4.28;1.00;;;18.10;99.90;;;;;;5041786;28;20174;-47
2022/05/22 11:34:03;;;;;;;4.50;1.05;;;18.20;99.20;;;;;;5051353;28;20024;-46
2022/05/22 11:36:39;;;;;;;6.63;1.10;;;18.40;99.90;;;;;;5040364;28;20039;-49
2022/05/22 11:39:38;;;;;;;2.63;0.70;;;18.50;99.10;;;;;;5051478;28;20055;-46
2022/05/22 11:42:46;;;;;;;3.58;0.90;;;18.50;97.70;;;;;;5051074;28;20023;-51
2022/05/22 11:45:24;;;;;;;3.33;0.95;;;18.40;96.90;;;;;;4969762;28;20537;-47
2022/05/22 11:48:08;;;;;;;1.17;0.70;;;18.60;96.70;;;;;;5040913;28;20422;-47
2022/05/22 11:50:46;;;;;;;1.80;0.65;;;18.60;95.90;;;;;;5051064;28;20105;-51
2022/05/22 11:53:26;;;;;;;1.75;0.93;;;18.60;94.70;;;;;;5050736;28;20025;-51
2022/05/22 11:56:26;;;;;;;3.08;1.23;;;18.60;95.90;;;;;;5051140;28;20039;-46
2022/05/22 11:59:19;;;;;;;0.52;0.40;;;18.60;95.50;;;;;;5051246;28;20049;-47
2022/05/22 12:02:00;;;;;;;2.58;1.10;;;18.70;96.10;;;;;;5050698;28;20040;-49
2022/05/22 12:04:40;;;;;;;4.40;0.65;;;18.80;96.80;;;;;;5050848;28;20395;-49
2022/05/22 12:07:26;;;;;;;2.58;1.10;;;18.60;93.70;;;;;;5050770;28;20549;-51
2022/05/22 12:10:02;;;;;;;1.98;0.95;;;18.50;95.90;;;;;;5050865;28;20121;-46
2022/05/22 12:12:52;;;;;;;0.93;0.60;;;18.40;96.80;;;;;;5050254;28;20036;-46
2022/05/22 12:15:24;;;;;;;3.70;0.70;;;18.70;95.60;;;;;;5050662;28;20021;-51
2022/05/22 12:17:55;;;;;;;4.13;1.40;;;19.10;94.80;;;;;;5050924;28;20029;-46
2022/05/22 12:20:45;;;;;;;3.92;1.25;;;19.10;92.70;;;;;;5049990;28;20082;-48
2022/05/22 12:23:27;;;;;;;4.20;0.57;;;19.20;94.50;;;;;;5050485;28;20418;-48
2022/05/22 12:26:01;;;;;;;4.32;0.88;;;19.10;91.60;;;;;;5050230;28;20467;-47
2022/05/22 12:28:45;;;;;;;1.02;0.50;;;19.10;94.20;;;;;;5050202;28;20036;-48
2022/05/22 12:31:31;;;;;;;2.17;0.70;;;19.00;93.40;;;;;;5050051;28;20059;-48
2022/05/22 12:34:02;;;;;;;2.40;0.80;;;19.00;94.80;;;;;;5050419;28;20098;-49
2022/05/22 12:36:30;;;;;;;3.15;1.13;;;18.90;96.40;;;;;;5033367;28;20045;-46
2022/05/22 12:39:04;;;;;;;3.45;0.60;;;18.90;95.50;;;;;;5032314;28;20032;-45
2022/05/22 12:42:01;;;;;;;1.65;0.90;;;18.90;95.00;;;;;;5032027;28;20156;-49
2022/05/22 12:44:28;;;;;;;1.10;0.52;;;18.80;93.90;;;;;;5049889;28;20025;-45
2022/05/22 12:46:57;;;;;;;3.03;0.50;;;18.70;94.60;;;;;;5050164;28;20094;-47
2022/05/22 12:49:26;;;;;;;1.77;1.20;;;18.80;95.90;;;;;;5050018;28;20436;-46
2022/05/22 12:52:01;;;;;;;1.42;1.02;;;18.70;93.10;;;;;;5049720;28;20025;-49
2022/05/22 12:54:32;;;;;;;4.20;1.02;;;18.50;94.30;;;;;;5049921;28;20032;-48
2022/05/22 12:57:10;;;;;;;2.42;0.90;;;18.30;92.80;;;;;;5050240;28;20056;-48
2022/05/22 12:59:35;;;;;;;3.97;2.05;;;18.20;93.50;;;;;;5049887;28;20051;-47
2022/05/22 13:02:02;;;;;;;4.97;1.45;;;18.10;94.50;;;;;;5049604;28;20021;-46
2022/05/22 13:04:38;;;;;;;3.58;0.75;;;18.00;94.60;;;;;;5049931;28;20648;-47
2022/05/22 13:07:06;;;;;;;3.33;0.88;;;17.90;95.60;;;;;;5031502;28;20025;-45
2022/05/22 13:09:32;;;;;;;5.60;1.25;;;18.00;95.00;;;;;;5049967;28;20051;-47
2022/05/22 13:12:09;;;;;;;1.90;0.70;;;18.10;94.10;;;;;;5049898;28;20055;-46